createdAt,value
2023-05-09T00:00:06.258Z,10.40
2023-05-09T00:01:15.429Z,10.40
2023-05-09T00:02:17.970Z,10.40
2023-05-09T00:03:21.214Z,10.40
2023-05-09T00:04:25.067Z,10.40
2023-05-09T00:05:27.749Z,10.40
2023-05-09T00:06:30.634Z,10.30
2023-05-09T00:07:33.677Z,10.30
2023-05-09T00:08:36.426Z,10.30
2023-05-09T00:09:38.980Z,10.30
2023-05-09T00:10:41.784Z,10.30
2023-05-09T00:11:44.548Z,10.30
2023-05-09T00:12:47.417Z,10.30
2023-05-09T00:13:50.982Z,10.30
2023-05-09T00:14:54.348Z,10.30
2023-05-09T00:15:59.563Z,10.20
2023-05-09T00:17:02.130Z,10.30
2023-05-09T00:18:05.268Z,10.20
2023-05-09T00:19:07.909Z,10.20
2023-05-09T00:20:12.511Z,10.20
2023-05-09T00:21:15.515Z,10.20
2023-05-09T00:22:21.411Z,10.20
2023-05-09T00:23:24.485Z,10.20
2023-05-09T00:24:27.006Z,10.10
2023-05-09T00:25:29.546Z,10.10
2023-05-09T00:26:32.101Z,10.10
2023-05-09T00:27:34.777Z,10.10
2023-05-09T00:28:37.686Z,10.10
2023-05-09T00:29:40.297Z,10.10
2023-05-09T00:30:42.863Z,10.10
2023-05-09T00:31:45.569Z,10.10
2023-05-09T00:32:48.159Z,10.10
2023-05-09T00:33:51.040Z,10.00
2023-05-09T00:34:53.594Z,10.00
2023-05-09T00:35:56.244Z,10.00
2023-05-09T00:36:58.802Z,10.00
2023-05-09T00:38:01.360Z,10.00
2023-05-09T00:39:04.004Z,10.00
2023-05-09T00:40:07.635Z,10.00
2023-05-09T00:41:10.282Z,9.90
2023-05-09T00:42:12.851Z,9.90
2023-05-09T00:43:16.843Z,9.90
2023-05-09T00:44:19.547Z,9.90
2023-05-09T00:45:22.075Z,9.90
2023-05-09T00:46:24.880Z,9.80
2023-05-09T00:47:28.929Z,9.80
2023-05-09T00:48:31.562Z,9.80
2023-05-09T00:49:34.393Z,9.80
2023-05-09T00:50:37.599Z,9.80
2023-05-09T00:51:41.289Z,9.80
2023-05-09T00:52:43.938Z,9.80
2023-05-09T00:53:46.727Z,9.80
2023-05-09T00:54:51.950Z,9.80
2023-05-09T00:55:56.941Z,9.80
2023-05-09T00:56:59.491Z,9.80
2023-05-09T00:58:03.764Z,9.70
2023-05-09T00:59:06.579Z,9.70
2023-05-09T01:00:13.604Z,9.70
2023-05-09T01:01:16.879Z,9.70
2023-05-09T01:02:19.818Z,9.70
2023-05-09T01:03:22.750Z,9.70
2023-05-09T01:04:25.946Z,9.70
2023-05-09T01:05:40.707Z,9.70
2023-05-09T01:06:52.372Z,9.70
2023-05-09T01:08:03.483Z,9.70
2023-05-09T01:09:38.363Z,9.60
2023-05-09T01:11:18.355Z,9.60
2023-05-09T01:12:50.203Z,9.70
2023-05-09T01:14:26.094Z,9.60
2023-05-09T01:15:39.901Z,9.60
2023-05-09T01:16:55.160Z,9.60
2023-05-09T01:18:09.691Z,9.60
2023-05-09T01:19:33.165Z,9.60
2023-05-09T01:21:16.963Z,9.60
2023-05-09T01:22:20.961Z,9.60
2023-05-09T01:23:44.391Z,9.60
2023-05-09T01:25:34.357Z,9.60
2023-05-09T01:27:16.269Z,9.50
2023-05-09T01:28:58.773Z,9.50
2023-05-09T01:30:05.105Z,9.50
2023-05-09T01:31:09.067Z,9.50
2023-05-09T01:32:19.371Z,9.50
2023-05-09T01:33:24.524Z,9.50
2023-05-09T01:34:29.128Z,9.50
2023-05-09T01:35:33.730Z,9.50
2023-05-09T01:36:40.380Z,9.50
2023-05-09T01:37:44.897Z,9.40
2023-05-09T01:38:51.587Z,9.40
2023-05-09T01:39:56.480Z,9.40
2023-05-09T01:41:00.995Z,9.40
2023-05-09T01:42:07.869Z,9.40
2023-05-09T01:43:11.602Z,9.40
2023-05-09T01:44:15.307Z,9.30
2023-05-09T01:45:19.371Z,9.40
2023-05-09T01:46:22.944Z,9.30
2023-05-09T01:47:26.382Z,9.30
2023-05-09T01:48:31.610Z,9.30
2023-05-09T01:49:38.003Z,9.30
2023-05-09T01:50:43.601Z,9.30
2023-05-09T01:51:47.967Z,9.30
2023-05-09T01:52:56.169Z,9.30
2023-05-09T01:54:00.485Z,9.30
2023-05-09T01:55:03.767Z,9.30
2023-05-09T01:56:08.290Z,9.30
2023-05-09T01:57:12.347Z,9.30
2023-05-09T01:58:16.783Z,9.30
2023-05-09T01:59:20.529Z,9.20
2023-05-09T02:01:30.348Z,9.20
2023-05-09T02:02:33.627Z,9.20
2023-05-09T02:03:39.348Z,9.20
2023-05-09T02:04:43.506Z,9.10
2023-05-09T02:05:47.489Z,9.10
2023-05-09T02:06:51.502Z,9.10
2023-05-09T02:08:00.138Z,9.10
2023-05-09T02:09:03.103Z,9.10
2023-05-09T02:10:09.490Z,9.10
2023-05-09T02:11:13.230Z,9.10
2023-05-09T02:12:15.910Z,9.10
2023-05-09T02:13:18.780Z,9.10
2023-05-09T02:14:22.097Z,9.10
2023-05-09T02:15:25.969Z,9.10
2023-05-09T02:16:28.953Z,9.10
2023-05-09T02:17:32.300Z,9.10
2023-05-09T02:18:35.555Z,9.10
2023-05-09T02:19:38.083Z,9.10
2023-05-09T02:20:40.904Z,9.10
2023-05-09T02:21:44.059Z,9.10
2023-05-09T02:22:47.863Z,9.10
2023-05-09T02:23:50.644Z,9.00
2023-05-09T02:24:53.411Z,9.00
2023-05-09T02:25:56.061Z,9.00
2023-05-09T02:27:07.179Z,9.00
2023-05-09T02:28:10.570Z,8.90
2023-05-09T02:29:15.320Z,8.90
2023-05-09T02:30:24.341Z,8.90
2023-05-09T02:31:29.665Z,8.90
2023-05-09T02:32:35.623Z,8.90
2023-05-09T02:33:39.782Z,8.90
2023-05-09T02:34:43.217Z,8.90
2023-05-09T02:35:46.938Z,8.80
2023-05-09T02:36:49.688Z,8.80
2023-05-09T02:37:53.613Z,8.80
2023-05-09T02:38:56.291Z,8.80
2023-05-09T02:39:58.985Z,8.80
2023-05-09T02:41:03.317Z,8.80
2023-05-09T02:42:09.450Z,8.70
2023-05-09T02:43:12.211Z,8.70
2023-05-09T02:44:14.791Z,8.70
2023-05-09T02:45:17.810Z,8.70
2023-05-09T02:46:20.449Z,8.70
2023-05-09T02:47:23.193Z,8.70
2023-05-09T02:48:25.872Z,8.70
2023-05-09T02:49:32.469Z,8.60
2023-05-09T02:50:38.478Z,8.60
2023-05-09T02:51:41.539Z,8.60
2023-05-09T02:52:44.245Z,8.60
2023-05-09T02:53:46.785Z,8.60
2023-05-09T02:54:49.380Z,8.60
2023-05-09T02:55:53.964Z,8.50
2023-05-09T02:56:56.556Z,8.50
2023-05-09T02:58:11.972Z,8.50
2023-05-09T02:59:17.727Z,8.50
2023-05-09T03:00:21.668Z,8.50
2023-05-09T03:01:24.287Z,8.50
2023-05-09T03:02:27.074Z,8.50
2023-05-09T03:03:34.037Z,8.50
2023-05-09T03:04:39.026Z,8.50
2023-05-09T03:05:41.672Z,8.50
2023-05-09T03:06:44.448Z,8.50
2023-05-09T03:07:47.506Z,8.40
2023-05-09T03:08:50.105Z,8.40
2023-05-09T03:09:52.972Z,8.40
2023-05-09T03:10:55.595Z,8.40
2023-05-09T03:11:58.224Z,8.40
2023-05-09T03:13:01.157Z,8.30
2023-05-09T03:14:04.843Z,8.40
2023-05-09T03:15:08.423Z,8.40
2023-05-09T03:16:18.605Z,8.40
2023-05-09T03:17:21.512Z,8.30
2023-05-09T03:18:24.224Z,8.30
2023-05-09T03:19:27.413Z,8.30
2023-05-09T03:20:30.022Z,8.30
2023-05-09T03:21:32.949Z,8.30
2023-05-09T03:22:35.461Z,8.30
2023-05-09T03:23:39.870Z,8.30
2023-05-09T03:24:42.488Z,8.30
2023-05-09T03:25:45.018Z,8.30
2023-05-09T03:26:47.610Z,8.30
2023-05-09T03:27:50.130Z,8.30
2023-05-09T03:28:52.709Z,8.20
2023-05-09T03:29:55.648Z,8.20
2023-05-09T03:30:58.154Z,8.20
2023-05-09T03:32:03.022Z,8.20
2023-05-09T03:33:06.361Z,8.20
2023-05-09T03:34:15.013Z,8.20
2023-05-09T03:35:19.069Z,8.20
2023-05-09T03:36:22.118Z,8.20
2023-05-09T03:37:27.089Z,8.20
2023-05-09T03:38:30.006Z,8.20
2023-05-09T03:39:32.651Z,8.20
2023-05-09T03:40:35.260Z,8.20
2023-05-09T03:41:44.169Z,8.20
2023-05-09T03:42:47.181Z,8.20
2023-05-09T03:43:49.822Z,8.20
2023-05-09T03:44:53.011Z,8.20
2023-05-09T03:45:57.039Z,8.20
2023-05-09T03:47:00.812Z,8.20
2023-05-09T03:48:11.432Z,8.20
2023-05-09T03:49:19.662Z,8.20
2023-05-09T03:50:24.932Z,8.20
2023-05-09T03:51:29.006Z,8.20
2023-05-09T03:52:32.575Z,8.20
2023-05-09T03:53:35.580Z,8.20
2023-05-09T03:54:38.193Z,8.20
2023-05-09T03:55:41.059Z,8.20
2023-05-09T03:56:44.347Z,8.20
2023-05-09T03:57:47.042Z,8.20
2023-05-09T03:58:49.776Z,8.20
2023-05-09T03:59:52.312Z,8.20
2023-05-09T04:00:55.156Z,8.10
2023-05-09T04:02:00.471Z,8.10
2023-05-09T04:03:03.389Z,8.10
2023-05-09T04:04:14.299Z,8.10
2023-05-09T04:05:17.598Z,8.10
2023-05-09T04:06:20.754Z,8.10
2023-05-09T04:07:23.919Z,8.10
2023-05-09T04:08:27.533Z,8.10
2023-05-09T04:09:30.789Z,8.10
2023-05-09T04:10:33.321Z,8.10
2023-05-09T04:11:36.200Z,8.10
2023-05-09T04:12:41.441Z,8.10
2023-05-09T04:13:44.199Z,8.10
2023-05-09T04:14:59.866Z,8.20
2023-05-09T04:16:03.074Z,8.20
2023-05-09T04:17:07.788Z,8.20
2023-05-09T04:18:10.915Z,8.20
2023-05-09T04:19:13.430Z,8.20
2023-05-09T04:20:16.110Z,8.20
2023-05-09T04:21:19.466Z,8.20
2023-05-09T04:22:24.893Z,8.20
2023-05-09T04:23:27.821Z,8.20
2023-05-09T04:24:34.089Z,8.20
2023-05-09T04:25:37.283Z,8.20
2023-05-09T04:26:39.933Z,8.20
2023-05-09T04:27:46.530Z,8.30
2023-05-09T04:28:49.808Z,8.30
2023-05-09T04:29:53.872Z,8.30
2023-05-09T04:30:56.497Z,8.30
2023-05-09T04:31:59.481Z,8.30
2023-05-09T04:33:03.151Z,8.30
2023-05-09T04:34:05.668Z,8.30
2023-05-09T04:35:10.517Z,8.30
2023-05-09T04:36:17.140Z,8.40
2023-05-09T04:37:20.303Z,8.40
2023-05-09T04:38:23.125Z,8.40
2023-05-09T04:39:25.750Z,8.40
2023-05-09T04:40:36.571Z,8.40
2023-05-09T04:41:39.211Z,8.50
2023-05-09T04:42:42.339Z,8.50
2023-05-09T04:43:45.015Z,8.50
2023-05-09T04:44:49.473Z,8.50
2023-05-09T04:45:52.314Z,8.50
2023-05-09T04:46:55.235Z,8.60
2023-05-09T04:47:57.885Z,8.60
2023-05-09T04:49:00.580Z,8.60
2023-05-09T04:50:03.308Z,8.70
2023-05-09T04:51:05.833Z,8.70
2023-05-09T04:52:08.583Z,8.70
2023-05-09T04:53:11.155Z,8.70
2023-05-09T04:54:14.216Z,8.80
2023-05-09T04:55:17.238Z,8.80
2023-05-09T04:56:23.088Z,8.80
2023-05-09T04:57:26.612Z,8.90
2023-05-09T04:58:34.485Z,8.90
2023-05-09T04:59:38.003Z,8.90
2023-05-09T05:00:41.115Z,8.90
2023-05-09T05:01:44.420Z,9.00
2023-05-09T05:02:47.378Z,9.00
2023-05-09T05:03:50.056Z,9.10
2023-05-09T05:05:00.144Z,9.10
2023-05-09T05:06:12.465Z,9.10
2023-05-09T05:07:17.199Z,9.20
2023-05-09T05:08:20.761Z,9.30
2023-05-09T05:09:24.660Z,9.30
2023-05-09T05:10:27.467Z,9.30
2023-05-09T05:11:38.142Z,9.30
2023-05-09T05:12:41.162Z,9.40
2023-05-09T05:13:46.395Z,9.40
2023-05-09T05:14:48.971Z,9.40
2023-05-09T05:15:55.019Z,9.50
2023-05-09T05:16:57.691Z,9.50
2023-05-09T05:18:00.363Z,9.60
2023-05-09T05:19:07.447Z,9.60
2023-05-09T05:20:14.164Z,9.70
2023-05-09T05:21:20.482Z,9.70
2023-05-09T05:22:23.169Z,9.80
2023-05-09T05:23:25.852Z,9.80
2023-05-09T05:24:30.200Z,9.80
2023-05-09T05:25:32.788Z,9.90
2023-05-09T05:26:36.614Z,10.00
2023-05-09T05:27:39.561Z,10.00
2023-05-09T05:28:43.315Z,10.00
2023-05-09T05:29:45.948Z,10.10
2023-05-09T05:30:48.517Z,10.10
2023-05-09T05:31:51.085Z,10.20
2023-05-09T05:32:53.945Z,10.20
2023-05-09T05:33:57.452Z,10.30
2023-05-09T05:35:02.548Z,10.40
2023-05-09T05:36:05.669Z,10.40
2023-05-09T05:37:08.403Z,10.40
2023-05-09T05:38:11.420Z,10.50
2023-05-09T05:39:14.832Z,10.50
2023-05-09T05:40:17.426Z,10.60
2023-05-09T05:41:23.550Z,10.60
2023-05-09T05:42:26.082Z,10.60
2023-05-09T05:43:28.603Z,10.70
2023-05-09T05:44:31.223Z,10.70
2023-05-09T05:45:33.907Z,10.80
2023-05-09T05:46:39.152Z,10.80
2023-05-09T05:47:42.033Z,10.90
2023-05-09T05:48:45.168Z,10.90
2023-05-09T05:49:48.035Z,11.00
2023-05-09T05:50:50.621Z,11.00
2023-05-09T05:51:56.769Z,11.00
2023-05-09T05:52:59.929Z,11.10
2023-05-09T05:54:03.407Z,11.20
2023-05-09T05:55:06.567Z,11.20
2023-05-09T05:56:09.156Z,11.20
2023-05-09T05:57:11.735Z,11.30
2023-05-09T05:58:14.457Z,11.40
2023-05-09T05:59:17.387Z,11.50
2023-05-09T06:00:20.723Z,11.50
2023-05-09T06:01:29.508Z,11.50
2023-05-09T06:02:33.901Z,11.60
2023-05-09T06:03:36.877Z,11.60
2023-05-09T06:04:42.556Z,11.70
2023-05-09T06:05:47.082Z,11.70
2023-05-09T06:06:49.697Z,11.80
2023-05-09T06:07:52.916Z,11.80
2023-05-09T06:08:55.615Z,11.80
2023-05-09T06:09:58.224Z,11.80
2023-05-09T06:11:01.726Z,11.90
2023-05-09T06:12:04.842Z,11.90
2023-05-09T06:13:07.512Z,11.90
2023-05-09T06:14:11.997Z,12.00
2023-05-09T06:15:14.978Z,12.00
2023-05-09T06:16:21.414Z,12.00
2023-05-09T06:17:26.204Z,12.00
2023-05-09T06:18:29.511Z,12.10
2023-05-09T06:19:32.040Z,12.20
2023-05-09T06:20:35.929Z,12.20
2023-05-09T06:21:39.487Z,12.20
2023-05-09T06:22:42.034Z,12.30
2023-05-09T06:23:57.859Z,12.40
2023-05-09T06:25:12.019Z,12.40
2023-05-09T06:26:14.931Z,12.50
2023-05-09T06:27:17.505Z,12.50
2023-05-09T06:28:20.080Z,12.50
2023-05-09T06:29:22.639Z,12.50
2023-05-09T06:30:26.981Z,12.60
2023-05-09T06:31:30.606Z,12.60
2023-05-09T06:32:33.263Z,12.60
2023-05-09T06:33:35.864Z,12.70
2023-05-09T06:34:38.421Z,12.70
2023-05-09T06:35:40.998Z,12.70
2023-05-09T06:36:43.510Z,12.70
2023-05-09T06:37:48.279Z,12.70
2023-05-09T06:38:51.566Z,12.70
2023-05-09T06:39:55.009Z,12.80
2023-05-09T06:40:57.743Z,12.80
2023-05-09T06:42:00.702Z,12.80
2023-05-09T06:43:07.823Z,12.80
2023-05-09T06:44:10.625Z,12.90
2023-05-09T06:45:13.456Z,12.90
2023-05-09T06:46:16.350Z,13.00
2023-05-09T06:47:18.972Z,13.00
2023-05-09T06:48:24.204Z,13.10
2023-05-09T06:49:26.971Z,13.10
2023-05-09T06:50:30.809Z,13.10
2023-05-09T06:51:35.345Z,13.20
2023-05-09T06:52:38.708Z,13.20
2023-05-09T06:53:41.331Z,13.30
2023-05-09T06:54:44.031Z,13.30
2023-05-09T06:55:46.684Z,13.40
2023-05-09T06:56:49.231Z,13.50
2023-05-09T06:57:52.181Z,13.50
2023-05-09T06:58:57.560Z,13.60
2023-05-09T07:00:00.240Z,13.60
2023-05-09T07:01:04.637Z,13.70
2023-05-09T07:02:07.493Z,13.70
2023-05-09T07:03:10.733Z,13.80
2023-05-09T07:04:13.355Z,13.80
2023-05-09T07:05:16.611Z,13.80
2023-05-09T07:06:19.522Z,13.90
2023-05-09T07:07:22.240Z,13.90
2023-05-09T07:08:26.109Z,13.90
2023-05-09T07:09:28.884Z,13.90
2023-05-09T07:10:31.948Z,13.90
2023-05-09T07:11:38.658Z,13.90
2023-05-09T07:12:42.323Z,13.90
2023-05-09T07:13:45.121Z,14.00
2023-05-09T07:14:47.976Z,14.10
2023-05-09T07:15:50.699Z,14.20
2023-05-09T07:16:57.990Z,14.30
2023-05-09T07:18:04.990Z,14.30
2023-05-09T07:19:07.600Z,14.30
2023-05-09T07:20:10.521Z,14.30
2023-05-09T07:21:13.041Z,14.30
2023-05-09T07:22:16.271Z,14.40
2023-05-09T07:23:18.884Z,14.40
2023-05-09T07:24:21.489Z,14.40
2023-05-09T07:25:24.213Z,14.50
2023-05-09T07:26:26.721Z,14.50
2023-05-09T07:27:29.691Z,14.50
2023-05-09T07:28:32.246Z,14.50
2023-05-09T07:29:35.337Z,14.50
2023-05-09T07:30:37.916Z,14.60
2023-05-09T07:31:40.522Z,14.60
2023-05-09T07:32:43.192Z,14.60
2023-05-09T07:33:45.786Z,14.70
2023-05-09T07:34:48.359Z,14.70
2023-05-09T07:35:52.984Z,14.80
2023-05-09T07:36:55.666Z,14.80
2023-05-09T07:37:58.217Z,14.90
2023-05-09T07:39:00.818Z,14.90
2023-05-09T07:40:05.964Z,14.90
2023-05-09T07:41:08.658Z,14.90
2023-05-09T07:42:11.721Z,15.00
2023-05-09T07:43:14.314Z,15.00
2023-05-09T07:44:16.897Z,15.10
2023-05-09T07:45:21.978Z,15.20
2023-05-09T07:46:26.377Z,15.20
2023-05-09T07:47:29.410Z,15.30
2023-05-09T07:48:32.259Z,15.30
2023-05-09T07:49:37.714Z,15.30
2023-05-09T07:50:52.365Z,15.30
2023-05-09T07:51:58.134Z,15.40
2023-05-09T07:53:01.075Z,15.50
2023-05-09T07:54:10.678Z,15.50
2023-05-09T07:55:13.975Z,15.60
2023-05-09T07:56:19.143Z,15.70
2023-05-09T07:57:31.296Z,15.70
2023-05-09T07:58:41.393Z,15.80
2023-05-09T07:59:48.967Z,15.90
2023-05-09T08:00:51.710Z,15.90
2023-05-09T08:01:54.565Z,16.00
2023-05-09T08:02:57.916Z,16.00
2023-05-09T08:04:03.420Z,16.00
2023-05-09T08:05:08.253Z,16.10
2023-05-09T08:06:11.604Z,16.10
2023-05-09T08:07:14.745Z,16.20
2023-05-09T08:08:17.775Z,16.30
2023-05-09T08:09:23.705Z,16.40
2023-05-09T08:10:30.673Z,16.40
2023-05-09T08:11:34.772Z,16.60
2023-05-09T08:12:40.095Z,16.70
2023-05-09T08:13:44.109Z,16.90
2023-05-09T08:14:47.000Z,17.00
2023-05-09T08:15:50.024Z,17.10
2023-05-09T08:16:53.729Z,17.20
2023-05-09T08:17:56.563Z,17.20
2023-05-09T08:18:59.367Z,17.30
2023-05-09T08:20:02.184Z,17.40
2023-05-09T08:21:05.396Z,17.50
2023-05-09T08:22:17.593Z,17.50
2023-05-09T08:23:20.513Z,17.60
2023-05-09T08:24:23.420Z,17.70
2023-05-09T08:25:27.542Z,17.90
2023-05-09T08:26:30.795Z,18.00
2023-05-09T08:27:33.498Z,18.20
2023-05-09T08:28:36.282Z,18.40
2023-05-09T08:29:39.166Z,18.50
2023-05-09T08:30:41.932Z,18.60
2023-05-09T08:31:47.551Z,18.80
2023-05-09T08:32:53.563Z,18.80
2023-05-09T08:34:03.357Z,18.80
2023-05-09T08:35:28.854Z,18.90
2023-05-09T08:36:49.059Z,18.90
2023-05-09T08:38:06.261Z,19.00
2023-05-09T08:39:11.713Z,19.00
2023-05-09T08:41:18.311Z,19.00
2023-05-09T08:42:25.530Z,19.00
2023-05-09T08:43:29.690Z,18.90
2023-05-09T08:44:33.466Z,18.80
2023-05-09T08:45:53.551Z,18.70
2023-05-09T08:47:04.162Z,18.60
2023-05-09T08:48:07.991Z,18.50
2023-05-09T08:49:10.912Z,18.40
2023-05-09T08:50:15.587Z,18.30
2023-05-09T08:51:18.555Z,18.20
2023-05-09T08:52:21.701Z,18.20
2023-05-09T08:53:24.381Z,18.20
2023-05-09T08:54:27.413Z,18.10
2023-05-09T08:55:30.291Z,18.10
2023-05-09T08:56:35.799Z,18.10
2023-05-09T08:57:38.693Z,18.10
2023-05-09T08:58:42.123Z,18.10
2023-05-09T08:59:45.715Z,18.10
2023-05-09T09:00:49.597Z,18.10
2023-05-09T09:01:53.976Z,18.00
2023-05-09T09:02:59.054Z,18.00
2023-05-09T09:04:06.991Z,18.00
2023-05-09T09:05:23.822Z,18.10
2023-05-09T09:06:36.419Z,18.00
2023-05-09T09:07:40.588Z,18.00
2023-05-09T09:08:44.524Z,18.00
2023-05-09T09:09:49.184Z,18.00
2023-05-09T09:10:51.973Z,18.00
2023-05-09T09:11:55.670Z,18.00
2023-05-09T09:13:00.530Z,18.00
2023-05-09T09:14:15.930Z,18.00
2023-05-09T09:15:20.250Z,18.00
2023-05-09T09:16:25.187Z,18.00
2023-05-09T09:17:30.825Z,17.90
2023-05-09T09:18:35.697Z,17.90
2023-05-09T09:19:44.055Z,17.90
2023-05-09T09:20:53.588Z,17.80
2023-05-09T09:22:00.796Z,17.80
2023-05-09T09:23:10.492Z,17.70
2023-05-09T09:24:14.738Z,17.70
2023-05-09T09:25:17.671Z,17.70
2023-05-09T09:26:20.264Z,17.60
2023-05-09T09:27:22.988Z,17.60
2023-05-09T09:28:25.662Z,17.60
2023-05-09T09:29:28.945Z,17.60
2023-05-09T09:30:31.648Z,17.60
2023-05-09T09:31:34.857Z,17.50
2023-05-09T09:32:40.222Z,17.50
2023-05-09T09:33:44.406Z,17.50
2023-05-09T09:35:07.095Z,17.50
2023-05-09T09:36:09.722Z,17.50
2023-05-09T09:37:23.318Z,17.40
2023-05-09T09:38:26.893Z,17.50
2023-05-09T09:39:29.532Z,17.50
2023-05-09T09:40:32.380Z,17.50
2023-05-09T09:41:39.777Z,17.50
2023-05-09T09:42:47.875Z,17.50
2023-05-09T09:43:51.318Z,17.50
2023-05-09T09:45:03.142Z,17.50
2023-05-09T09:46:06.028Z,17.50
2023-05-09T09:47:11.180Z,17.50
2023-05-09T09:48:13.839Z,17.50
2023-05-09T09:49:26.376Z,17.50
2023-05-09T09:50:29.003Z,17.50
2023-05-09T09:51:35.775Z,17.50
2023-05-09T09:52:52.857Z,17.50
2023-05-09T09:53:55.964Z,17.50
2023-05-09T09:55:00.178Z,17.50
2023-05-09T09:56:04.519Z,17.40
2023-05-09T09:57:07.153Z,17.40
2023-05-09T09:58:25.166Z,17.50
2023-05-09T09:59:28.164Z,17.50
2023-05-09T10:00:32.748Z,17.50
2023-05-09T10:01:35.651Z,17.50
2023-05-09T10:02:48.670Z,17.50
2023-05-09T10:03:51.387Z,17.50
2023-05-09T10:04:53.977Z,17.50
2023-05-09T10:06:02.657Z,17.60
2023-05-09T10:07:08.992Z,17.50
2023-05-09T10:08:11.810Z,17.50
2023-05-09T10:09:14.428Z,17.50
2023-05-09T10:10:17.407Z,17.50
2023-05-09T10:11:20.128Z,17.40
2023-05-09T10:12:23.838Z,17.40
2023-05-09T10:13:27.749Z,17.40
2023-05-09T10:14:35.109Z,17.40
2023-05-09T10:15:52.262Z,17.40
2023-05-09T10:16:57.958Z,17.40
2023-05-09T10:18:04.349Z,17.50
2023-05-09T10:19:07.212Z,17.50
2023-05-09T10:20:10.854Z,17.50
2023-05-09T10:21:17.177Z,17.60
2023-05-09T10:22:21.265Z,17.60
2023-05-09T10:23:25.487Z,17.70
2023-05-09T10:24:42.670Z,17.70
2023-05-09T10:25:55.523Z,17.80
2023-05-09T10:27:04.739Z,17.80
2023-05-09T10:28:13.342Z,17.80
2023-05-09T10:29:22.866Z,17.80
2023-05-09T10:30:41.450Z,17.80
2023-05-09T10:31:45.596Z,17.90
2023-05-09T10:33:03.477Z,17.90
2023-05-09T10:34:10.201Z,17.90
2023-05-09T10:35:17.169Z,17.90
2023-05-09T10:36:26.587Z,18.00
2023-05-09T10:37:30.992Z,18.00
2023-05-09T10:38:35.109Z,18.00
2023-05-09T10:39:38.578Z,18.10
2023-05-09T10:40:42.063Z,18.10
2023-05-09T10:41:44.956Z,18.10
2023-05-09T10:42:47.730Z,18.20
2023-05-09T10:43:50.495Z,18.20
2023-05-09T10:44:53.900Z,18.20
2023-05-09T10:45:56.724Z,18.20
2023-05-09T10:47:00.509Z,18.20
2023-05-09T10:48:07.142Z,18.20
2023-05-09T10:49:10.323Z,18.20
2023-05-09T10:50:14.804Z,18.10
2023-05-09T10:51:17.884Z,18.10
2023-05-09T10:52:23.173Z,18.10
2023-05-09T10:53:48.724Z,18.10
2023-05-09T10:55:04.101Z,18.10
2023-05-09T10:56:07.750Z,18.10
2023-05-09T10:57:11.122Z,18.10
2023-05-09T10:58:31.476Z,18.10
2023-05-09T10:59:40.104Z,18.10
2023-05-09T11:00:43.096Z,18.10
2023-05-09T11:01:47.158Z,18.20
2023-05-09T11:03:08.842Z,18.20
2023-05-09T11:04:17.439Z,18.20
2023-05-09T11:05:20.545Z,18.20
2023-05-09T11:06:50.886Z,18.20
2023-05-09T11:08:22.089Z,18.20
2023-05-09T11:09:29.895Z,18.20
2023-05-09T11:10:42.961Z,18.20
2023-05-09T11:12:04.549Z,18.20
2023-05-09T11:13:09.366Z,18.20
2023-05-09T11:14:33.968Z,18.20
2023-05-09T11:16:01.929Z,18.20
2023-05-09T11:17:07.290Z,18.20
2023-05-09T11:18:11.229Z,18.20
2023-05-09T11:19:37.497Z,18.30
2023-05-09T11:20:46.560Z,18.30
2023-05-09T11:22:19.823Z,18.30
2023-05-09T11:23:27.351Z,18.30
2023-05-09T11:24:32.695Z,18.30
2023-05-09T11:25:36.362Z,18.40
2023-05-09T11:26:40.206Z,18.30
2023-05-09T11:27:49.472Z,18.30
2023-05-09T11:28:54.161Z,18.40
2023-05-09T11:30:05.034Z,18.30
2023-05-09T11:31:16.575Z,18.30
2023-05-09T11:32:22.523Z,18.30
2023-05-09T11:33:30.283Z,18.30
2023-05-09T11:34:34.392Z,18.30
2023-05-09T11:35:38.260Z,18.30
2023-05-09T11:36:47.832Z,18.40
2023-05-09T11:37:52.980Z,18.40
2023-05-09T11:39:10.118Z,18.40
2023-05-09T11:40:14.757Z,18.40
2023-05-09T11:41:17.795Z,18.40
2023-05-09T11:42:23.457Z,18.50
2023-05-09T11:43:26.123Z,18.50
2023-05-09T11:44:30.912Z,18.50
2023-05-09T11:45:34.006Z,18.50
2023-05-09T11:46:37.854Z,18.60
2023-05-09T11:47:41.655Z,18.60
2023-05-09T11:48:44.221Z,18.60
2023-05-09T11:49:48.390Z,18.60
2023-05-09T11:50:51.410Z,18.60
2023-05-09T11:51:53.958Z,18.60
2023-05-09T11:52:56.639Z,18.60
2023-05-09T11:53:59.576Z,18.60
2023-05-09T11:55:02.216Z,18.60
2023-05-09T11:56:06.424Z,18.70
2023-05-09T11:57:09.603Z,18.70
2023-05-09T11:58:12.853Z,18.70
2023-05-09T11:59:15.924Z,18.70
2023-05-09T12:00:23.840Z,18.80
2023-05-09T12:01:26.784Z,18.70
2023-05-09T12:02:30.165Z,18.70
2023-05-09T12:03:33.563Z,18.60
2023-05-09T12:04:36.445Z,18.60
2023-05-09T12:05:58.035Z,18.60
2023-05-09T12:07:01.782Z,18.60
2023-05-09T12:08:05.539Z,18.60
2023-05-09T12:09:10.383Z,18.60
2023-05-09T12:10:21.111Z,18.70
2023-05-09T12:11:24.874Z,18.70
2023-05-09T12:12:27.598Z,18.70
2023-05-09T12:13:30.382Z,18.70
2023-05-09T12:14:34.426Z,18.80
2023-05-09T12:15:42.293Z,18.80
2023-05-09T12:16:47.482Z,18.80
2023-05-09T12:18:08.557Z,18.80
2023-05-09T12:19:11.996Z,18.80
2023-05-09T12:20:14.784Z,18.90
2023-05-09T12:21:19.174Z,18.90
2023-05-09T12:22:22.117Z,18.90
2023-05-09T12:23:24.766Z,18.90
2023-05-09T12:24:29.861Z,18.90
2023-05-09T12:25:32.550Z,18.90
2023-05-09T12:26:35.160Z,18.90
2023-05-09T12:27:39.847Z,18.90
2023-05-09T12:28:43.862Z,18.80
2023-05-09T12:29:48.251Z,18.90
2023-05-09T12:30:51.954Z,18.90
2023-05-09T12:31:55.784Z,18.90
2023-05-09T12:32:58.898Z,18.90
2023-05-09T12:34:01.725Z,18.90
2023-05-09T12:35:04.802Z,19.00
2023-05-09T12:36:11.222Z,19.00
2023-05-09T12:37:18.843Z,19.10
2023-05-09T12:38:22.686Z,19.10
2023-05-09T12:39:26.782Z,19.10
2023-05-09T12:40:29.440Z,19.20
2023-05-09T12:41:39.102Z,19.20
2023-05-09T12:42:45.336Z,19.20
2023-05-09T12:43:51.744Z,19.20
2023-05-09T12:44:54.452Z,19.30
2023-05-09T12:45:59.037Z,19.20
2023-05-09T12:47:03.848Z,19.20
2023-05-09T12:48:08.975Z,19.20
2023-05-09T12:49:22.386Z,19.20
2023-05-09T12:50:35.496Z,19.20
2023-05-09T12:51:51.251Z,19.20
2023-05-09T12:53:02.561Z,19.20
2023-05-09T12:54:11.710Z,19.20
2023-05-09T12:55:14.891Z,19.20
2023-05-09T12:56:20.426Z,19.20
2023-05-09T12:57:25.245Z,19.20
2023-05-09T12:58:34.327Z,19.20
2023-05-09T12:59:37.150Z,19.20
2023-05-09T13:00:46.124Z,19.20
2023-05-09T13:01:58.132Z,19.30
2023-05-09T13:03:00.926Z,19.30
2023-05-09T13:04:07.680Z,19.20
2023-05-09T13:05:18.438Z,19.30
2023-05-09T13:06:21.306Z,19.30
2023-05-09T13:07:23.934Z,19.40
2023-05-09T13:08:27.182Z,19.30
2023-05-09T13:09:29.834Z,19.30
2023-05-09T13:10:32.861Z,19.30
2023-05-09T13:11:37.729Z,19.30
2023-05-09T13:12:45.485Z,19.30
2023-05-09T13:13:48.075Z,19.30
2023-05-09T13:14:50.675Z,19.30
2023-05-09T13:15:54.208Z,19.40
2023-05-09T13:16:56.841Z,19.40
2023-05-09T13:17:59.605Z,19.40
2023-05-09T13:19:02.301Z,19.50
2023-05-09T13:20:05.703Z,19.50
2023-05-09T13:21:08.307Z,19.50
2023-05-09T13:22:12.329Z,19.60
2023-05-09T13:23:15.190Z,19.70
2023-05-09T13:24:17.845Z,19.60
2023-05-09T13:25:20.424Z,19.70
2023-05-09T13:26:23.207Z,19.70
2023-05-09T13:27:27.951Z,19.70
2023-05-09T13:28:30.524Z,19.80
2023-05-09T13:29:33.091Z,19.80
2023-05-09T13:30:35.919Z,19.80
2023-05-09T13:31:38.521Z,19.80
2023-05-09T13:32:41.605Z,19.80
2023-05-09T13:33:44.157Z,19.70
2023-05-09T13:34:46.777Z,19.80
2023-05-09T13:35:49.336Z,19.80
2023-05-09T13:36:51.912Z,19.70
2023-05-09T13:37:54.628Z,19.80
2023-05-09T13:38:57.181Z,19.80
2023-05-09T13:39:59.714Z,19.80
2023-05-09T13:41:02.335Z,19.80
2023-05-09T13:42:04.935Z,19.80
2023-05-09T13:43:07.661Z,19.80
2023-05-09T13:44:10.412Z,19.80
2023-05-09T13:45:13.244Z,19.80
2023-05-09T13:46:16.153Z,19.80
2023-05-09T13:47:19.077Z,19.80
2023-05-09T13:48:21.605Z,19.80
2023-05-09T13:49:24.132Z,19.70
2023-05-09T13:50:26.675Z,19.70
2023-05-09T13:51:29.500Z,19.70
2023-05-09T13:52:32.116Z,19.70
2023-05-09T13:53:36.751Z,19.70
2023-05-09T13:54:40.884Z,19.70
2023-05-09T13:55:45.248Z,19.70
2023-05-09T13:56:47.861Z,19.80
2023-05-09T13:57:50.482Z,19.70
2023-05-09T13:58:52.992Z,19.80
2023-05-09T13:59:55.577Z,19.90
2023-05-09T14:00:58.329Z,19.90
2023-05-09T14:02:01.808Z,19.90
2023-05-09T14:03:04.994Z,19.90
2023-05-09T14:04:07.982Z,20.00
2023-05-09T14:05:10.805Z,20.00
2023-05-09T14:06:15.357Z,20.00
2023-05-09T14:07:18.448Z,20.00
2023-05-09T14:08:21.439Z,20.00
2023-05-09T14:09:24.565Z,20.00
2023-05-09T14:10:27.221Z,20.00
2023-05-09T14:11:29.813Z,20.00
2023-05-09T14:12:32.792Z,20.00